Terminal Aerodrome Forecast
Issued by NWS Charleston, WV

Current Version | Previous Version | Text Only | Print | Product List | Glossary Off
Versions: 1 2 3 4 5 6 7 8 9 10 11 12 13 14 15 16 17 18 19 20 21 22 23

000
FTUS41 KRLX 240250 AAA
TAFCRW
TAF AMD
KCRW 240250Z 2403/2424 00000KT P6SM FEW300
     FM240400 00000KT 4SM BR SCT250
     FM240500 00000KT 1/4SM FG VV001
     FM241200 00000KT 4SM BR SCT002
     FM241400 VRB04KT P6SM FEW040=

USA.gov is the U.S. government's official web portal to all federal, state and local government web resources and services.